sensor_id;sensor_type;location;lat;lon;timestamp;P1;durP1;ratioP1;P2;durP2;ratioP2
7571;SDS011;3827;49.928;8.548;2023-12-20T00:00:15;5.25;;;4.72;;
7571;SDS011;3827;49.928;8.548;2023-12-20T00:02:41;5.30;;;4.80;;
7571;SDS011;3827;49.928;8.548;2023-12-20T00:05:12;4.95;;;4.55;;
7571;SDS011;3827;49.928;8.548;2023-12-20T00:07:39;5.07;;;4.63;;
7571;SDS011;3827;49.928;8.548;2023-12-20T00:10:06;5.18;;;4.72;;
7571;SDS011;3827;49.928;8.548;2023-12-20T00:12:33;4.97;;;4.47;;
7571;SDS011;3827;49.928;8.548;2023-12-20T00:15:01;4.70;;;4.30;;
7571;SDS011;3827;49.928;8.548;2023-12-20T00:17:28;5.28;;;4.82;;
7571;SDS011;3827;49.928;8.548;2023-12-20T00:19:55;4.97;;;4.57;;
7571;SDS011;3827;49.928;8.548;2023-12-20T00:22:21;4.93;;;4.53;;
7571;SDS011;3827;49.928;8.548;2023-12-20T00:24:48;5.07;;;4.57;;
7571;SDS011;3827;49.928;8.548;2023-12-20T00:27:15;4.28;;;3.88;;
7571;SDS011;3827;49.928;8.548;2023-12-20T00:29:42;4.75;;;4.35;;
7571;SDS011;3827;49.928;8.548;2023-12-20T00:32:14;4.95;;;4.55;;
7571;SDS011;3827;49.928;8.548;2023-12-20T00:34:40;4.57;;;4.18;;
7571;SDS011;3827;49.928;8.548;2023-12-20T00:37:07;4.72;;;3.95;;
7571;SDS011;3827;49.928;8.548;2023-12-20T00:39:34;4.20;;;3.88;;
7571;SDS011;3827;49.928;8.548;2023-12-20T00:42:01;4.05;;;3.65;;
7571;SDS011;3827;49.928;8.548;2023-12-20T00:44:27;3.83;;;3.53;;
7571;SDS011;3827;49.928;8.548;2023-12-20T00:46:54;3.92;;;3.60;;
7571;SDS011;3827;49.928;8.548;2023-12-20T00:49:22;4.05;;;3.70;;
7571;SDS011;3827;49.928;8.548;2023-12-20T00:51:49;4.30;;;3.45;;
7571;SDS011;3827;49.928;8.548;2023-12-20T00:54:17;3.63;;;3.28;;
7571;SDS011;3827;49.928;8.548;2023-12-20T00:56:44;3.78;;;3.45;;
7571;SDS011;3827;49.928;8.548;2023-12-20T00:59:11;3.55;;;3.25;;
7571;SDS011;3827;49.928;8.548;2023-12-20T01:01:37;5.10;;;3.60;;
7571;SDS011;3827;49.928;8.548;2023-12-20T01:04:04;3.47;;;3.17;;
7571;SDS011;3827;49.928;8.548;2023-12-20T01:06:32;3.60;;;3.30;;
7571;SDS011;3827;49.928;8.548;2023-12-20T01:08:59;3.47;;;3.17;;
7571;SDS011;3827;49.928;8.548;2023-12-20T01:11:26;3.80;;;3.30;;
7571;SDS011;3827;49.928;8.548;2023-12-20T01:13:52;3.25;;;2.95;;
7571;SDS011;3827;49.928;8.548;2023-12-20T01:16:20;3.47;;;3.17;;
7571;SDS011;3827;49.928;8.548;2023-12-20T01:18:46;3.38;;;3.08;;
7571;SDS011;3827;49.928;8.548;2023-12-20T01:21:14;3.80;;;3.30;;
7571;SDS011;3827;49.928;8.548;2023-12-20T01:23:42;3.40;;;3.10;;
7571;SDS011;3827;49.928;8.548;2023-12-20T01:26:09;3.47;;;3.17;;
7571;SDS011;3827;49.928;8.548;2023-12-20T01:28:35;3.30;;;3.00;;
7571;SDS011;3827;49.928;8.548;2023-12-20T01:31:02;3.30;;;3.00;;
7571;SDS011;3827;49.928;8.548;2023-12-20T01:33:29;3.40;;;3.10;;
7571;SDS011;3827;49.928;8.548;2023-12-20T01:35:56;3.30;;;3.00;;
7571;SDS011;3827;49.928;8.548;2023-12-20T01:38:22;3.75;;;3.17;;
7571;SDS011;3827;49.928;8.548;2023-12-20T01:40:50;3.35;;;2.88;;
7571;SDS011;3827;49.928;8.548;2023-12-20T01:43:17;3.35;;;3.05;;
7571;SDS011;3827;49.928;8.548;2023-12-20T01:45:44;3.45;;;3.15;;
7571;SDS011;3827;49.928;8.548;2023-12-20T01:48:11;4.30;;;2.83;;
7571;SDS011;3827;49.928;8.548;2023-12-20T01:50:38;3.00;;;2.80;;
7571;SDS011;3827;49.928;8.548;2023-12-20T01:53:07;3.17;;;2.88;;
7571;SDS011;3827;49.928;8.548;2023-12-20T01:55:35;2.97;;;2.78;;
7571;SDS011;3827;49.928;8.548;2023-12-20T01:58:06;3.20;;;2.90;;
7571;SDS011;3827;49.928;8.548;2023-12-20T02:00:34;3.20;;;2.90;;
7571;SDS011;3827;49.928;8.548;2023-12-20T02:03:02;2.80;;;2.60;;
7571;SDS011;3827;49.928;8.548;2023-12-20T02:05:30;2.88;;;2.67;;
7571;SDS011;3827;49.928;8.548;2023-12-20T02:07:57;3.10;;;2.80;;
7571;SDS011;3827;49.928;8.548;2023-12-20T02:10:23;3.08;;;2.88;;
7571;SDS011;3827;49.928;8.548;2023-12-20T02:12:51;2.97;;;2.67;;
7571;SDS011;3827;49.928;8.548;2023-12-20T02:15:19;2.83;;;2.63;;
7571;SDS011;3827;49.928;8.548;2023-12-20T02:17:46;2.60;;;2.40;;
7571;SDS011;3827;49.928;8.548;2023-12-20T02:20:14;2.92;;;2.67;;
7571;SDS011;3827;49.928;8.548;2023-12-20T02:22:42;2.60;;;2.40;;
7571;SDS011;3827;49.928;8.548;2023-12-20T02:25:08;2.63;;;2.42;;
7571;SDS011;3827;49.928;8.548;2023-12-20T02:27:35;2.85;;;2.65;;
7571;SDS011;3827;49.928;8.548;2023-12-20T02:30:03;2.58;;;2.38;;
7571;SDS011;3827;49.928;8.548;2023-12-20T02:32:30;2.70;;;2.50;;
7571;SDS011;3827;49.928;8.548;2023-12-20T02:34:57;2.63;;;2.42;;
7571;SDS011;3827;49.928;8.548;2023-12-20T02:37:24;2.80;;;2.60;;
7571;SDS011;3827;49.928;8.548;2023-12-20T02:39:52;2.97;;;2.67;;
7571;SDS011;3827;49.928;8.548;2023-12-20T02:42:19;3.30;;;2.75;;
7571;SDS011;3827;49.928;8.548;2023-12-20T02:44:45;2.83;;;2.63;;
7571;SDS011;3827;49.928;8.548;2023-12-20T02:47:12;2.90;;;2.70;;
7571;SDS011;3827;49.928;8.548;2023-12-20T02:49:39;4.60;;;2.95;;
7571;SDS011;3827;49.928;8.548;2023-12-20T02:52:06;2.83;;;2.63;;
7571;SDS011;3827;49.928;8.548;2023-12-20T02:54:32;3.08;;;2.78;;
7571;SDS011;3827;49.928;8.548;2023-12-20T02:57:00;3.10;;;2.90;;
7571;SDS011;3827;49.928;8.548;2023-12-20T02:59:27;2.90;;;2.60;;
7571;SDS011;3827;49.928;8.548;2023-12-20T03:01:54;2.95;;;2.53;;
7571;SDS011;3827;49.928;8.548;2023-12-20T03:04:21;3.15;;;2.47;;
7571;SDS011;3827;49.928;8.548;2023-12-20T03:06:47;2.80;;;2.50;;
7571;SDS011;3827;49.928;8.548;2023-12-20T03:09:14;2.65;;;2.45;;
7571;SDS011;3827;49.928;8.548;2023-12-20T03:11:41;3.08;;;2.60;;
7571;SDS011;3827;49.928;8.548;2023-12-20T03:14:09;2.70;;;2.50;;
7571;SDS011;3827;49.928;8.548;2023-12-20T03:16:36;2.80;;;2.60;;
7571;SDS011;3827;49.928;8.548;2023-12-20T03:19:02;3.20;;;2.60;;
7571;SDS011;3827;49.928;8.548;2023-12-20T03:21:29;3.20;;;3.00;;
7571;SDS011;3827;49.928;8.548;2023-12-20T03:23:56;2.70;;;2.50;;
7571;SDS011;3827;49.928;8.548;2023-12-20T03:26:23;2.58;;;2.38;;
7571;SDS011;3827;49.928;8.548;2023-12-20T03:28:49;2.70;;;2.50;;
7571;SDS011;3827;49.928;8.548;2023-12-20T03:31:18;2.85;;;2.65;;
7571;SDS011;3827;49.928;8.548;2023-12-20T03:33:46;2.83;;;2.63;;
7571;SDS011;3827;49.928;8.548;2023-12-20T03:36:12;2.70;;;2.50;;
7571;SDS011;3827;49.928;8.548;2023-12-20T03:38:39;2.72;;;2.53;;
7571;SDS011;3827;49.928;8.548;2023-12-20T03:41:06;2.80;;;2.60;;
7571;SDS011;3827;49.928;8.548;2023-12-20T03:43:33;2.40;;;2.28;;
7571;SDS011;3827;49.928;8.548;2023-12-20T03:46:00;3.97;;;3.03;;
7571;SDS011;3827;49.928;8.548;2023-12-20T03:48:30;4.47;;;2.90;;
7571;SDS011;3827;49.928;8.548;2023-12-20T03:50:56;3.28;;;2.85;;
7571;SDS011;3827;49.928;8.548;2023-12-20T03:53:23;3.05;;;2.85;;
7571;SDS011;3827;49.928;8.548;2023-12-20T03:55:50;3.50;;;3.20;;
7571;SDS011;3827;49.928;8.548;2023-12-20T03:58:17;2.97;;;2.78;;
7571;SDS011;3827;49.928;8.548;2023-12-20T04:00:43;2.83;;;2.63;;
7571;SDS011;3827;49.928;8.548;2023-12-20T04:03:10;2.78;;;2.58;;
7571;SDS011;3827;49.928;8.548;2023-12-20T04:05:39;3.10;;;2.80;;
7571;SDS011;3827;49.928;8.548;2023-12-20T04:08:07;3.20;;;3.00;;
7571;SDS011;3827;49.928;8.548;2023-12-20T04:10:34;3.08;;;2.88;;
7571;SDS011;3827;49.928;8.548;2023-12-20T04:13:02;2.78;;;2.58;;
7571;SDS011;3827;49.928;8.548;2023-12-20T04:15:29;3.10;;;2.80;;
7571;SDS011;3827;49.928;8.548;2023-12-20T04:17:56;3.25;;;3.05;;
7571;SDS011;3827;49.928;8.548;2023-12-20T04:20:23;3.22;;;3.03;;
7571;SDS011;3827;49.928;8.548;2023-12-20T04:22:51;3.30;;;3.00;;
7571;SDS011;3827;49.928;8.548;2023-12-20T04:25:17;3.88;;;3.58;;
7571;SDS011;3827;49.928;8.548;2023-12-20T04:27:44;3.40;;;3.10;;
7571;SDS011;3827;49.928;8.548;2023-12-20T04:30:11;3.13;;;2.92;;
7571;SDS011;3827;49.928;8.548;2023-12-20T04:32:38;3.00;;;2.70;;
7571;SDS011;3827;49.928;8.548;2023-12-20T04:35:05;3.33;;;3.03;;
7571;SDS011;3827;49.928;8.548;2023-12-20T04:37:32;3.20;;;2.90;;
7571;SDS011;3827;49.928;8.548;2023-12-20T04:40:00;3.10;;;2.90;;
7571;SDS011;3827;49.928;8.548;2023-12-20T04:42:27;2.93;;;2.73;;
7571;SDS011;3827;49.928;8.548;2023-12-20T04:44:53;3.65;;;2.92;;
7571;SDS011;3827;49.928;8.548;2023-12-20T04:47:20;3.95;;;2.72;;
7571;SDS011;3827;49.928;8.548;2023-12-20T04:49:47;3.30;;;3.10;;
7571;SDS011;3827;49.928;8.548;2023-12-20T04:52:14;2.67;;;2.47;;
7571;SDS011;3827;49.928;8.548;2023-12-20T04:54:41;2.75;;;2.55;;
7571;SDS011;3827;49.928;8.548;2023-12-20T04:57:09;3.30;;;2.97;;
7571;SDS011;3827;49.928;8.548;2023-12-20T04:59:35;2.85;;;2.65;;
7571;SDS011;3827;49.928;8.548;2023-12-20T05:02:02;2.78;;;2.58;;
7571;SDS011;3827;49.928;8.548;2023-12-20T05:04:29;2.90;;;2.70;;
7571;SDS011;3827;49.928;8.548;2023-12-20T05:06:56;2.50;;;2.30;;
7571;SDS011;3827;49.928;8.548;2023-12-20T05:09:23;2.80;;;2.60;;
7571;SDS011;3827;49.928;8.548;2023-12-20T05:11:49;2.60;;;2.40;;
7571;SDS011;3827;49.928;8.548;2023-12-20T05:14:17;2.40;;;2.30;;
7571;SDS011;3827;49.928;8.548;2023-12-20T05:16:44;3.33;;;2.30;;
7571;SDS011;3827;49.928;8.548;2023-12-20T05:19:11;2.10;;;2.00;;
7571;SDS011;3827;49.928;8.548;2023-12-20T05:21:44;3.30;;;2.30;;
7571;SDS011;3827;49.928;8.548;2023-12-20T05:24:20;2.80;;;2.20;;
7571;SDS011;3827;49.928;8.548;2023-12-20T05:26:57;2.97;;;2.53;;
7571;SDS011;3827;49.928;8.548;2023-12-20T05:29:25;2.30;;;2.10;;
7571;SDS011;3827;49.928;8.548;2023-12-20T05:31:52;3.30;;;2.25;;
7571;SDS011;3827;49.928;8.548;2023-12-20T05:34:20;4.68;;;3.33;;
7571;SDS011;3827;49.928;8.548;2023-12-20T05:36:46;3.53;;;3.03;;
7571;SDS011;3827;49.928;8.548;2023-12-20T05:39:13;3.65;;;2.30;;
7571;SDS011;3827;49.928;8.548;2023-12-20T05:41:40;2.97;;;1.98;;
7571;SDS011;3827;49.928;8.548;2023-12-20T05:44:07;2.95;;;2.10;;
7571;SDS011;3827;49.928;8.548;2023-12-20T05:46:35;2.80;;;1.95;;
7571;SDS011;3827;49.928;8.548;2023-12-20T05:49:01;3.47;;;2.47;;
7571;SDS011;3827;49.928;8.548;2023-12-20T05:51:28;2.90;;;2.15;;
7571;SDS011;3827;49.928;8.548;2023-12-20T05:53:55;2.75;;;2.03;;
7571;SDS011;3827;49.928;8.548;2023-12-20T05:56:22;2.63;;;2.00;;
7571;SDS011;3827;49.928;8.548;2023-12-20T05:58:48;3.08;;;2.15;;
7571;SDS011;3827;49.928;8.548;2023-12-20T06:01:15;3.70;;;2.20;;
7571;SDS011;3827;49.928;8.548;2023-12-20T06:03:44;3.60;;;1.95;;
7571;SDS011;3827;49.928;8.548;2023-12-20T06:06:11;4.00;;;2.20;;
7571;SDS011;3827;49.928;8.548;2023-12-20T06:08:39;3.97;;;2.00;;
7571;SDS011;3827;49.928;8.548;2023-12-20T06:11:08;4.53;;;1.80;;
7571;SDS011;3827;49.928;8.548;2023-12-20T06:13:35;2.58;;;1.65;;
7571;SDS011;3827;49.928;8.548;2023-12-20T06:16:02;3.78;;;1.90;;
7571;SDS011;3827;49.928;8.548;2023-12-20T06:18:29;3.05;;;1.80;;
7571;SDS011;3827;49.928;8.548;2023-12-20T06:20:57;4.18;;;1.90;;
7571;SDS011;3827;49.928;8.548;2023-12-20T06:23:24;2.63;;;2.22;;
7571;SDS011;3827;49.928;8.548;2023-12-20T06:25:52;3.22;;;2.50;;
7571;SDS011;3827;49.928;8.548;2023-12-20T06:28:19;5.05;;;2.30;;
7571;SDS011;3827;49.928;8.548;2023-12-20T06:30:46;3.38;;;2.05;;
7571;SDS011;3827;49.928;8.548;2023-12-20T06:33:14;3.38;;;2.30;;
7571;SDS011;3827;49.928;8.548;2023-12-20T06:35:41;3.15;;;2.22;;
7571;SDS011;3827;49.928;8.548;2023-12-20T06:38:09;2.40;;;2.20;;
7571;SDS011;3827;49.928;8.548;2023-12-20T06:40:36;4.70;;;2.28;;
7571;SDS011;3827;49.928;8.548;2023-12-20T06:43:03;4.15;;;2.00;;
7571;SDS011;3827;49.928;8.548;2023-12-20T06:45:31;2.67;;;2.03;;
7571;SDS011;3827;49.928;8.548;2023-12-20T06:47:58;2.85;;;2.47;;
7571;SDS011;3827;49.928;8.548;2023-12-20T06:50:25;4.70;;;4.13;;
7571;SDS011;3827;49.928;8.548;2023-12-20T06:52:52;5.65;;;4.80;;
7571;SDS011;3827;49.928;8.548;2023-12-20T06:55:20;5.55;;;2.78;;
7571;SDS011;3827;49.928;8.548;2023-12-20T06:57:48;4.93;;;4.30;;
7571;SDS011;3827;49.928;8.548;2023-12-20T07:00:15;3.53;;;3.22;;
7571;SDS011;3827;49.928;8.548;2023-12-20T07:02:43;5.90;;;2.75;;
7571;SDS011;3827;49.928;8.548;2023-12-20T07:05:10;3.90;;;2.50;;
7571;SDS011;3827;49.928;8.548;2023-12-20T07:07:37;4.35;;;2.17;;
7571;SDS011;3827;49.928;8.548;2023-12-20T07:10:04;3.97;;;2.20;;
7571;SDS011;3827;49.928;8.548;2023-12-20T07:12:34;6.15;;;2.67;;
7571;SDS011;3827;49.928;8.548;2023-12-20T07:15:01;6.32;;;2.47;;
7571;SDS011;3827;49.928;8.548;2023-12-20T07:17:27;3.45;;;2.08;;
7571;SDS011;3827;49.928;8.548;2023-12-20T07:19:54;4.73;;;2.30;;
7571;SDS011;3827;49.928;8.548;2023-12-20T07:22:22;4.95;;;2.53;;
7571;SDS011;3827;49.928;8.548;2023-12-20T07:24:48;6.47;;;2.10;;
7571;SDS011;3827;49.928;8.548;2023-12-20T07:27:17;3.00;;;2.20;;
7571;SDS011;3827;49.928;8.548;2023-12-20T07:29:45;4.72;;;2.00;;
7571;SDS011;3827;49.928;8.548;2023-12-20T07:32:12;4.50;;;2.33;;
7571;SDS011;3827;49.928;8.548;2023-12-20T07:34:38;5.10;;;2.40;;
7571;SDS011;3827;49.928;8.548;2023-12-20T07:37:05;3.60;;;2.15;;
7571;SDS011;3827;49.928;8.548;2023-12-20T07:39:35;3.73;;;2.00;;
7571;SDS011;3827;49.928;8.548;2023-12-20T07:42:02;5.07;;;1.98;;
7571;SDS011;3827;49.928;8.548;2023-12-20T07:44:29;3.13;;;1.85;;
7571;SDS011;3827;49.928;8.548;2023-12-20T07:46:57;4.50;;;1.80;;
7571;SDS011;3827;49.928;8.548;2023-12-20T07:49:24;5.05;;;1.70;;
7571;SDS011;3827;49.928;8.548;2023-12-20T07:51:51;1.73;;;1.60;;
7571;SDS011;3827;49.928;8.548;2023-12-20T07:54:17;3.08;;;1.52;;
7571;SDS011;3827;49.928;8.548;2023-12-20T07:56:44;4.43;;;1.80;;
7571;SDS011;3827;49.928;8.548;2023-12-20T07:59:12;3.88;;;1.50;;
7571;SDS011;3827;49.928;8.548;2023-12-20T08:01:39;3.13;;;1.70;;
7571;SDS011;3827;49.928;8.548;2023-12-20T08:04:07;5.28;;;1.92;;
7571;SDS011;3827;49.928;8.548;2023-12-20T08:06:34;3.20;;;1.70;;
7571;SDS011;3827;49.928;8.548;2023-12-20T08:09:00;2.47;;;1.50;;
7571;SDS011;3827;49.928;8.548;2023-12-20T08:11:28;2.53;;;1.58;;
7571;SDS011;3827;49.928;8.548;2023-12-20T08:13:54;4.57;;;1.60;;
7571;SDS011;3827;49.928;8.548;2023-12-20T08:16:21;2.80;;;1.70;;
7571;SDS011;3827;49.928;8.548;2023-12-20T08:18:48;5.00;;;1.80;;
7571;SDS011;3827;49.928;8.548;2023-12-20T08:21:16;6.70;;;2.00;;
7571;SDS011;3827;49.928;8.548;2023-12-20T08:23:45;3.47;;;1.90;;
7571;SDS011;3827;49.928;8.548;2023-12-20T08:26:12;3.53;;;1.98;;
7571;SDS011;3827;49.928;8.548;2023-12-20T08:28:39;5.78;;;1.67;;
7571;SDS011;3827;49.928;8.548;2023-12-20T08:31:06;1.88;;;1.30;;
7571;SDS011;3827;49.928;8.548;2023-12-20T08:33:39;3.55;;;1.85;;
7571;SDS011;3827;49.928;8.548;2023-12-20T08:36:06;5.53;;;1.55;;
7571;SDS011;3827;49.928;8.548;2023-12-20T08:38:34;4.40;;;1.42;;
7571;SDS011;3827;49.928;8.548;2023-12-20T08:41:00;4.57;;;1.50;;
7571;SDS011;3827;49.928;8.548;2023-12-20T08:43:30;3.10;;;1.37;;
7571;SDS011;3827;49.928;8.548;2023-12-20T08:45:56;4.07;;;1.25;;
7571;SDS011;3827;49.928;8.548;2023-12-20T08:48:23;3.17;;;1.42;;
7571;SDS011;3827;49.928;8.548;2023-12-20T08:50:50;5.60;;;1.58;;
7571;SDS011;3827;49.928;8.548;2023-12-20T08:53:17;4.05;;;1.35;;
7571;SDS011;3827;49.928;8.548;2023-12-20T08:55:46;4.30;;;1.45;;
7571;SDS011;3827;49.928;8.548;2023-12-20T08:58:13;3.03;;;1.33;;
7571;SDS011;3827;49.928;8.548;2023-12-20T09:00:40;4.40;;;1.70;;
7571;SDS011;3827;49.928;8.548;2023-12-20T09:03:07;5.05;;;1.52;;
7571;SDS011;3827;49.928;8.548;2023-12-20T09:05:33;5.03;;;1.80;;
7571;SDS011;3827;49.928;8.548;2023-12-20T09:08:00;4.43;;;1.40;;
7571;SDS011;3827;49.928;8.548;2023-12-20T09:10:27;3.07;;;1.40;;
7571;SDS011;3827;49.928;8.548;2023-12-20T09:12:56;3.20;;;1.60;;
7571;SDS011;3827;49.928;8.548;2023-12-20T09:15:23;3.53;;;1.60;;
7571;SDS011;3827;49.928;8.548;2023-12-20T09:17:50;2.88;;;1.63;;
7571;SDS011;3827;49.928;8.548;2023-12-20T09:20:17;2.95;;;1.40;;
7571;SDS011;3827;49.928;8.548;2023-12-20T09:22:43;1.90;;;1.30;;
7571;SDS011;3827;49.928;8.548;2023-12-20T09:25:10;4.82;;;2.05;;
7571;SDS011;3827;49.928;8.548;2023-12-20T09:27:37;6.00;;;3.28;;
7571;SDS011;3827;49.928;8.548;2023-12-20T09:30:06;4.95;;;2.97;;
7571;SDS011;3827;49.928;8.548;2023-12-20T09:32:33;2.38;;;1.23;;
7571;SDS011;3827;49.928;8.548;2023-12-20T09:34:59;3.78;;;1.77;;
7571;SDS011;3827;49.928;8.548;2023-12-20T09:37:27;4.90;;;1.42;;
7571;SDS011;3827;49.928;8.548;2023-12-20T09:39:54;5.18;;;1.98;;
7571;SDS011;3827;49.928;8.548;2023-12-20T09:42:23;4.38;;;1.65;;
7571;SDS011;3827;49.928;8.548;2023-12-20T09:44:55;4.63;;;1.70;;
7571;SDS011;3827;49.928;8.548;2023-12-20T09:47:28;5.55;;;2.53;;
7571;SDS011;3827;49.928;8.548;2023-12-20T09:49:54;5.68;;;2.00;;
7571;SDS011;3827;49.928;8.548;2023-12-20T09:52:22;4.32;;;1.55;;
7571;SDS011;3827;49.928;8.548;2023-12-20T09:54:51;4.22;;;1.50;;
7571;SDS011;3827;49.928;8.548;2023-12-20T09:57:20;5.18;;;1.70;;
7571;SDS011;3827;49.928;8.548;2023-12-20T09:59:46;3.78;;;1.80;;
7571;SDS011;3827;49.928;8.548;2023-12-20T10:02:13;3.25;;;1.42;;
7571;SDS011;3827;49.928;8.548;2023-12-20T10:04:46;4.00;;;1.40;;
7571;SDS011;3827;49.928;8.548;2023-12-20T10:07:13;3.08;;;1.20;;
7571;SDS011;3827;49.928;8.548;2023-12-20T10:09:40;4.63;;;1.40;;
7571;SDS011;3827;49.928;8.548;2023-12-20T10:12:08;5.45;;;1.65;;
7571;SDS011;3827;49.928;8.548;2023-12-20T10:14:35;3.47;;;1.35;;
7571;SDS011;3827;49.928;8.548;2023-12-20T10:17:02;4.45;;;1.50;;
7571;SDS011;3827;49.928;8.548;2023-12-20T10:19:29;3.88;;;1.30;;
7571;SDS011;3827;49.928;8.548;2023-12-20T10:21:58;4.45;;;1.40;;
7571;SDS011;3827;49.928;8.548;2023-12-20T10:24:28;3.75;;;1.50;;
7571;SDS011;3827;49.928;8.548;2023-12-20T10:27:02;5.78;;;1.63;;
7571;SDS011;3827;49.928;8.548;2023-12-20T10:29:31;5.47;;;1.35;;
7571;SDS011;3827;49.928;8.548;2023-12-20T10:31:59;4.22;;;1.42;;
7571;SDS011;3827;49.928;8.548;2023-12-20T10:34:25;4.80;;;2.03;;
7571;SDS011;3827;49.928;8.548;2023-12-20T10:36:52;3.25;;;1.50;;
7571;SDS011;3827;49.928;8.548;2023-12-20T10:39:20;3.43;;;1.50;;
7571;SDS011;3827;49.928;8.548;2023-12-20T10:41:48;3.63;;;1.55;;
7571;SDS011;3827;49.928;8.548;2023-12-20T10:44:15;5.97;;;1.70;;
7571;SDS011;3827;49.928;8.548;2023-12-20T10:46:42;4.30;;;1.40;;
7571;SDS011;3827;49.928;8.548;2023-12-20T10:49:15;5.18;;;1.45;;
7571;SDS011;3827;49.928;8.548;2023-12-20T10:51:43;3.75;;;1.75;;
7571;SDS011;3827;49.928;8.548;2023-12-20T10:54:12;6.45;;;2.20;;
7571;SDS011;3827;49.928;8.548;2023-12-20T10:56:40;4.88;;;1.70;;
7571;SDS011;3827;49.928;8.548;2023-12-20T10:59:07;4.20;;;1.50;;
7571;SDS011;3827;49.928;8.548;2023-12-20T11:01:37;4.25;;;1.40;;
7571;SDS011;3827;49.928;8.548;2023-12-20T11:04:06;3.78;;;1.42;;
7571;SDS011;3827;49.928;8.548;2023-12-20T11:06:40;4.90;;;1.47;;
7571;SDS011;3827;49.928;8.548;2023-12-20T11:09:14;4.97;;;1.55;;
7571;SDS011;3827;49.928;8.548;2023-12-20T11:12:01;3.63;;;1.57;;
7571;SDS011;3827;49.928;8.548;2023-12-20T11:14:35;5.57;;;1.83;;
7571;SDS011;3827;49.928;8.548;2023-12-20T11:17:07;3.80;;;1.75;;
7571;SDS011;3827;49.928;8.548;2023-12-20T11:19:38;4.85;;;1.60;;
7571;SDS011;3827;49.928;8.548;2023-12-20T11:22:29;4.78;;;1.52;;
7571;SDS011;3827;49.928;8.548;2023-12-20T11:24:57;2.72;;;1.35;;
7571;SDS011;3827;49.928;8.548;2023-12-20T11:27:30;3.40;;;1.40;;
7571;SDS011;3827;49.928;8.548;2023-12-20T11:29:58;4.80;;;1.45;;
7571;SDS011;3827;49.928;8.548;2023-12-20T11:32:28;3.58;;;1.60;;
7571;SDS011;3827;49.928;8.548;2023-12-20T11:34:56;5.22;;;2.30;;
7571;SDS011;3827;49.928;8.548;2023-12-20T11:37:28;3.42;;;2.15;;
7571;SDS011;3827;49.928;8.548;2023-12-20T11:39:59;5.13;;;1.98;;
7571;SDS011;3827;49.928;8.548;2023-12-20T11:42:33;2.70;;;1.70;;
7571;SDS011;3827;49.928;8.548;2023-12-20T11:45:04;5.15;;;1.60;;
7571;SDS011;3827;49.928;8.548;2023-12-20T11:47:31;4.10;;;1.50;;
7571;SDS011;3827;49.928;8.548;2023-12-20T11:49:58;4.27;;;1.70;;
7571;SDS011;3827;49.928;8.548;2023-12-20T11:52:28;5.07;;;1.50;;
7571;SDS011;3827;49.928;8.548;2023-12-20T11:54:55;4.88;;;1.70;;
7571;SDS011;3827;49.928;8.548;2023-12-20T11:57:22;6.13;;;1.50;;
7571;SDS011;3827;49.928;8.548;2023-12-20T11:59:51;4.43;;;1.60;;
7571;SDS011;3827;49.928;8.548;2023-12-20T12:02:17;3.78;;;1.38;;
7571;SDS011;3827;49.928;8.548;2023-12-20T12:04:44;3.72;;;1.63;;
7571;SDS011;3827;49.928;8.548;2023-12-20T12:07:11;5.20;;;1.80;;
7571;SDS011;3827;49.928;8.548;2023-12-20T12:09:38;3.20;;;1.38;;
7571;SDS011;3827;49.928;8.548;2023-12-20T12:12:05;6.22;;;1.70;;
7571;SDS011;3827;49.928;8.548;2023-12-20T12:14:32;4.20;;;1.23;;
7571;SDS011;3827;49.928;8.548;2023-12-20T12:17:01;4.45;;;1.60;;
7571;SDS011;3827;49.928;8.548;2023-12-20T12:19:29;5.72;;;1.70;;
7571;SDS011;3827;49.928;8.548;2023-12-20T12:22:06;4.85;;;1.70;;
7571;SDS011;3827;49.928;8.548;2023-12-20T12:24:36;6.90;;;1.98;;
7571;SDS011;3827;49.928;8.548;2023-12-20T12:27:03;4.97;;;1.83;;
7571;SDS011;3827;49.928;8.548;2023-12-20T12:29:32;5.05;;;1.80;;
7571;SDS011;3827;49.928;8.548;2023-12-20T12:31:59;3.88;;;1.35;;
7571;SDS011;3827;49.928;8.548;2023-12-20T12:34:28;3.72;;;1.38;;
7571;SDS011;3827;49.928;8.548;2023-12-20T12:36:55;5.00;;;1.55;;
7571;SDS011;3827;49.928;8.548;2023-12-20T12:39:22;3.47;;;1.58;;
7571;SDS011;3827;49.928;8.548;2023-12-20T12:41:50;3.88;;;1.77;;
7571;SDS011;3827;49.928;8.548;2023-12-20T12:44:17;3.92;;;1.60;;
7571;SDS011;3827;49.928;8.548;2023-12-20T12:46:44;5.03;;;1.65;;
7571;SDS011;3827;49.928;8.548;2023-12-20T12:49:11;6.13;;;2.30;;
7571;SDS011;3827;49.928;8.548;2023-12-20T12:51:39;5.93;;;2.00;;
7571;SDS011;3827;49.928;8.548;2023-12-20T12:54:06;3.03;;;1.75;;
7571;SDS011;3827;49.928;8.548;2023-12-20T12:56:33;4.55;;;2.10;;
7571;SDS011;3827;49.928;8.548;2023-12-20T12:59:00;4.15;;;1.65;;
7571;SDS011;3827;49.928;8.548;2023-12-20T13:01:27;3.83;;;1.80;;
7571;SDS011;3827;49.928;8.548;2023-12-20T13:03:54;4.07;;;1.70;;
7571;SDS011;3827;49.928;8.548;2023-12-20T13:06:21;3.60;;;1.58;;
7571;SDS011;3827;49.928;8.548;2023-12-20T13:08:49;5.18;;;1.70;;
7571;SDS011;3827;49.928;8.548;2023-12-20T13:11:16;4.80;;;1.70;;
7571;SDS011;3827;49.928;8.548;2023-12-20T13:13:43;4.10;;;1.75;;
7571;SDS011;3827;49.928;8.548;2023-12-20T13:16:10;5.97;;;1.60;;
7571;SDS011;3827;49.928;8.548;2023-12-20T13:18:36;4.55;;;1.85;;
7571;SDS011;3827;49.928;8.548;2023-12-20T13:21:07;5.53;;;2.03;;
7571;SDS011;3827;49.928;8.548;2023-12-20T13:23:34;4.65;;;1.63;;
7571;SDS011;3827;49.928;8.548;2023-12-20T13:26:02;5.45;;;1.77;;
7571;SDS011;3827;49.928;8.548;2023-12-20T13:28:29;5.28;;;1.80;;
7571;SDS011;3827;49.928;8.548;2023-12-20T13:30:56;4.55;;;1.65;;
7571;SDS011;3827;49.928;8.548;2023-12-20T13:33:23;4.95;;;1.60;;
7571;SDS011;3827;49.928;8.548;2023-12-20T13:35:49;3.92;;;1.67;;
7571;SDS011;3827;49.928;8.548;2023-12-20T13:38:16;6.15;;;1.50;;
7571;SDS011;3827;49.928;8.548;2023-12-20T13:40:43;4.63;;;1.63;;
7571;SDS011;3827;49.928;8.548;2023-12-20T13:43:11;3.58;;;1.70;;
7571;SDS011;3827;49.928;8.548;2023-12-20T13:45:39;4.20;;;1.70;;
7571;SDS011;3827;49.928;8.548;2023-12-20T13:48:06;4.30;;;1.80;;
7571;SDS011;3827;49.928;8.548;2023-12-20T13:50:33;3.95;;;1.60;;
7571;SDS011;3827;49.928;8.548;2023-12-20T13:52:59;5.35;;;1.83;;
7571;SDS011;3827;49.928;8.548;2023-12-20T13:55:29;5.07;;;1.90;;
7571;SDS011;3827;49.928;8.548;2023-12-20T13:57:55;3.88;;;1.60;;
7571;SDS011;3827;49.928;8.548;2023-12-20T14:00:24;3.05;;;1.58;;
7571;SDS011;3827;49.928;8.548;2023-12-20T14:02:50;5.05;;;2.00;;
7571;SDS011;3827;49.928;8.548;2023-12-20T14:05:17;4.95;;;2.25;;
7571;SDS011;3827;49.928;8.548;2023-12-20T14:07:44;4.72;;;1.80;;
7571;SDS011;3827;49.928;8.548;2023-12-20T14:10:11;3.17;;;1.77;;
7571;SDS011;3827;49.928;8.548;2023-12-20T14:12:38;6.18;;;1.60;;
7571;SDS011;3827;49.928;8.548;2023-12-20T14:15:06;3.50;;;1.65;;
7571;SDS011;3827;49.928;8.548;2023-12-20T14:17:37;3.50;;;1.90;;
7571;SDS011;3827;49.928;8.548;2023-12-20T14:20:04;4.00;;;1.83;;
7571;SDS011;3827;49.928;8.548;2023-12-20T14:22:32;4.47;;;1.55;;
7571;SDS011;3827;49.928;8.548;2023-12-20T14:24:59;4.55;;;1.55;;
7571;SDS011;3827;49.928;8.548;2023-12-20T14:27:26;4.82;;;1.60;;
7571;SDS011;3827;49.928;8.548;2023-12-20T14:29:53;3.90;;;1.50;;
7571;SDS011;3827;49.928;8.548;2023-12-20T14:32:20;4.18;;;1.50;;
7571;SDS011;3827;49.928;8.548;2023-12-20T14:34:49;3.17;;;1.60;;
7571;SDS011;3827;49.928;8.548;2023-12-20T14:37:15;2.42;;;1.23;;
7571;SDS011;3827;49.928;8.548;2023-12-20T14:39:42;3.42;;;1.25;;
7571;SDS011;3827;49.928;8.548;2023-12-20T14:42:09;3.00;;;1.43;;
7571;SDS011;3827;49.928;8.548;2023-12-20T14:44:38;4.03;;;1.55;;
7571;SDS011;3827;49.928;8.548;2023-12-20T14:47:05;3.90;;;1.40;;
7571;SDS011;3827;49.928;8.548;2023-12-20T14:49:32;4.97;;;1.50;;
7571;SDS011;3827;49.928;8.548;2023-12-20T14:52:01;2.72;;;1.17;;
7571;SDS011;3827;49.928;8.548;2023-12-20T14:54:28;4.07;;;1.38;;
7571;SDS011;3827;49.928;8.548;2023-12-20T14:56:55;5.57;;;1.40;;
7571;SDS011;3827;49.928;8.548;2023-12-20T14:59:21;4.03;;;1.50;;
7571;SDS011;3827;49.928;8.548;2023-12-20T15:01:48;4.00;;;1.40;;
7571;SDS011;3827;49.928;8.548;2023-12-20T15:04:15;5.13;;;1.27;;
7571;SDS011;3827;49.928;8.548;2023-12-20T15:06:42;6.95;;;1.80;;
7571;SDS011;3827;49.928;8.548;2023-12-20T15:09:11;3.90;;;1.35;;
7571;SDS011;3827;49.928;8.548;2023-12-20T15:11:38;3.58;;;1.55;;
7571;SDS011;3827;49.928;8.548;2023-12-20T15:14:04;4.10;;;1.52;;
7571;SDS011;3827;49.928;8.548;2023-12-20T15:16:32;4.78;;;1.60;;